Time;durP1;ratioP1;P1;durP2;ratioP2;P2;SDS_P1;SDS_P2;PMS_P1;PMS_P2;Temp;Humidity;BMP_temperature;BMP_pressure;BME280_temperature;BME280_humidity;BME280_pressure;Samples;Min_cycle;Max_cycle;Signal;HPM_P1;HPM_P2
2023/09/18 00:09:48;;;;;;;2.40;1.65;;;18.80;90.70;;;;;;5842128;24;20045;-79
2023/09/18 00:12:35;;;;;;;2.72;1.88;;;18.80;90.70;;;;;;5852346;24;20026;-79
2023/09/18 00:28:51;;;;;;;2.80;1.85;;;18.90;90.70;;;;;;5736967;24;20031;-78
2023/09/18 00:31:20;;;;;;;1.90;1.48;;;18.90;90.70;;;;;;5754164;24;20028;-77
2023/09/18 00:33:46;;;;;;;2.80;1.98;;;18.80;90.70;;;;;;5782642;24;20073;-77
2023/09/18 00:36:15;;;;;;;3.47;1.60;;;18.80;90.70;;;;;;5786445;24;20098;-77
2023/09/18 00:38:44;;;;;;;1.92;1.50;;;18.80;90.70;;;;;;5789211;24;20026;-76
2023/09/18 00:41:09;;;;;;;2.47;1.70;;;18.90;90.80;;;;;;5785656;24;20080;-77
2023/09/18 00:43:38;;;;;;;3.80;2.13;;;18.80;90.80;;;;;;5894898;24;20379;-79
2023/09/18 00:46:08;;;;;;;3.28;2.35;;;18.80;90.80;;;;;;5964567;23;20020;-78
2023/09/18 00:49:06;;;;;;;3.05;1.98;;;18.80;90.80;;;;;;5981001;24;20446;-78
2023/09/18 00:51:38;;;;;;;2.35;1.77;;;18.90;90.90;;;;;;5977253;24;20017;-78
2023/09/18 00:54:34;;;;;;;2.60;1.83;;;18.80;90.80;;;;;;5953856;24;20020;-76
2023/09/18 00:57:14;;;;;;;2.45;1.92;;;18.80;90.90;;;;;;5952585;24;20015;-79
2023/09/18 00:59:40;;;;;;;2.03;1.40;;;18.80;90.90;;;;;;5950880;24;20039;-80
2023/09/18 01:02:09;;;;;;;3.13;2.10;;;18.80;90.90;;;;;;5990855;23;20306;-81
2023/09/18 01:04:44;;;;;;;2.13;1.75;;;18.90;90.90;;;;;;6040227;23;20083;-78
2023/09/18 01:07:53;;;;;;;3.22;2.28;;;18.90;90.90;;;;;;6016619;23;20562;-79
2023/09/18 01:10:24;;;;;;;2.42;2.00;;;18.80;91.00;;;;;;5974528;23;20044;-80
2023/09/18 01:13:01;;;;;;;2.60;1.98;;;18.70;90.90;;;;;;5997999;23;20029;-76
2023/09/18 01:15:45;;;;;;;3.47;2.47;;;18.70;90.90;;;;;;5981376;23;20091;-80
2023/09/18 01:18:11;;;;;;;2.92;2.20;;;18.80;91.00;;;;;;5954539;24;20418;-78
2023/09/18 01:20:39;;;;;;;2.78;2.05;;;18.70;90.90;;;;;;5978673;23;20020;-80
2023/09/18 01:24:03;;;;;;;2.63;2.00;;;18.70;91.00;;;;;;5950752;23;20020;-83
2023/09/18 01:26:35;;;;;;;2.90;2.03;;;18.70;91.00;;;;;;6040152;23;20470;-81
2023/09/18 01:29:19;;;;;;;2.90;1.90;;;18.80;91.00;;;;;;5950593;24;20094;-83
2023/09/18 01:32:14;;;;;;;1.98;1.55;;;18.70;91.00;;;;;;5932182;24;20095;-78
2023/09/18 01:34:50;;;;;;;2.08;1.70;;;18.70;91.00;;;;;;5942681;24;20099;-77
2023/09/18 01:40:57;;;;;;;1.98;1.75;;;18.70;91.00;;;;;;5860970;24;20036;-80
2023/09/18 01:44:04;;;;;;;3.78;1.92;;;18.70;91.00;;;;;;5911587;24;20100;-80
2023/09/18 01:46:51;;;;;;;3.35;2.00;;;18.70;91.00;;;;;;5866977;24;20498;-79
2023/09/18 01:49:31;;;;;;;2.22;1.60;;;18.60;91.00;;;;;;5877197;24;20464;-78
2023/09/18 01:51:57;;;;;;;3.28;2.10;;;18.70;91.00;;;;;;5923514;24;20013;-75
2023/09/18 01:54:24;;;;;;;2.97;1.85;;;18.70;91.00;;;;;;5923058;24;20469;-75
2023/09/18 01:56:51;;;;;;;1.98;1.63;;;18.70;91.00;;;;;;5933238;24;20085;-75
2023/09/18 01:59:18;;;;;;;2.28;1.90;;;18.70;91.10;;;;;;5968424;23;20019;-75
2023/09/18 02:01:44;;;;;;;3.28;2.10;;;18.60;91.00;;;;;;6035083;23;20003;-75
2023/09/18 02:04:10;;;;;;;2.88;2.13;;;18.70;91.10;;;;;;5994314;23;20549;-75
2023/09/18 02:06:36;;;;;;;2.75;1.95;;;18.60;91.10;;;;;;5996593;23;20004;-75
2023/09/18 02:09:03;;;;;;;2.83;2.05;;;18.70;91.10;;;;;;5997779;23;20075;-75
2023/09/18 02:11:29;;;;;;;3.05;1.90;;;18.70;91.10;;;;;;6021726;23;20023;-75
2023/09/18 02:13:56;;;;;;;2.42;1.92;;;18.60;91.10;;;;;;6019645;23;20606;-75
2023/09/18 02:16:24;;;;;;;2.42;1.83;;;18.60;91.10;;;;;;6045958;23;20011;-75
2023/09/18 02:18:50;;;;;;;2.75;2.05;;;18.60;91.10;;;;;;6053182;23;20078;-75
2023/09/18 02:21:20;;;;;;;3.08;2.13;;;18.60;91.10;;;;;;6078479;23;20003;-75
2023/09/18 02:23:49;;;;;;;2.93;2.10;;;18.70;91.20;;;;;;6191711;22;20005;-75
2023/09/18 02:26:14;;;;;;;4.10;2.53;;;18.60;91.10;;;;;;6255909;22;20267;-74
2023/09/18 02:28:40;;;;;;;2.78;2.10;;;18.70;91.20;;;;;;6249764;22;20443;-75
2023/09/18 02:31:06;;;;;;;3.50;2.30;;;18.60;91.20;;;;;;6253399;22;19997;-75
2023/09/18 02:33:32;;;;;;;2.75;1.98;;;18.60;91.20;;;;;;6260408;22;20000;-75
2023/09/18 02:35:57;;;;;;;2.95;2.00;;;18.60;91.20;;;;;;6260355;22;20019;-75
2023/09/18 02:38:23;;;;;;;3.05;1.80;;;18.70;91.20;;;;;;6233774;22;19996;-75
2023/09/18 02:40:49;;;;;;;2.42;1.90;;;18.60;91.20;;;;;;6183384;22;20008;-76
2023/09/18 02:43:14;;;;;;;2.63;2.08;;;18.60;91.20;;;;;;6194922;23;20017;-75
2023/09/18 02:45:40;;;;;;;3.33;2.28;;;18.70;91.20;;;;;;6168260;23;20016;-75
2023/09/18 02:48:06;;;;;;;3.17;2.15;;;18.70;91.20;;;;;;6187424;23;20017;-75
2023/09/18 02:50:32;;;;;;;2.65;1.88;;;18.70;91.20;;;;;;6175961;23;20005;-75
2023/09/18 02:52:58;;;;;;;2.63;1.70;;;18.60;91.10;;;;;;6181854;23;20009;-75
2023/09/18 02:55:23;;;;;;;2.72;1.92;;;18.70;91.20;;;;;;6165246;23;20021;-75
2023/09/18 02:57:49;;;;;;;2.00;1.60;;;18.60;91.10;;;;;;6118916;23;20009;-76
2023/09/18 03:00:15;;;;;;;3.05;1.60;;;18.70;91.20;;;;;;6123065;23;20009;-76
2023/09/18 03:02:41;;;;;;;2.28;1.70;;;18.70;91.20;;;;;;6164786;23;20012;-75
2023/09/18 03:05:08;;;;;;;2.97;2.05;;;18.70;91.20;;;;;;6164559;23;20001;-75
2023/09/18 03:07:34;;;;;;;2.72;2.00;;;18.70;91.20;;;;;;6134126;23;20017;-75
2023/09/18 03:09:59;;;;;;;2.63;2.00;;;18.80;91.20;;;;;;6188287;23;20455;-76
2023/09/18 03:12:26;;;;;;;2.35;1.80;;;18.80;91.20;;;;;;6188843;23;20432;-76
2023/09/18 03:14:51;;;;;;;2.53;1.95;;;18.70;91.10;;;;;;6200919;23;20072;-75
2023/09/18 03:17:17;;;;;;;3.55;1.95;;;18.80;91.20;;;;;;6173129;23;20012;-75
2023/09/18 03:19:43;;;;;;;2.38;1.70;;;18.70;91.10;;;;;;6174635;23;20040;-75
2023/09/18 03:22:08;;;;;;;4.18;2.22;;;18.80;91.20;;;;;;6226886;23;20005;-76
2023/09/18 03:24:34;;;;;;;3.08;2.00;;;18.70;91.10;;;;;;6223808;23;20004;-75
2023/09/18 03:27:00;;;;;;;3.35;2.42;;;18.70;91.10;;;;;;6173245;23;20484;-76
2023/09/18 03:29:26;;;;;;;3.35;2.20;;;18.80;91.20;;;;;;6204345;23;20028;-75
2023/09/18 03:31:51;;;;;;;2.35;1.95;;;18.70;91.10;;;;;;6172863;23;20004;-75
2023/09/18 03:34:17;;;;;;;3.28;2.10;;;18.80;91.20;;;;;;6154490;23;20011;-75
2023/09/18 03:36:43;;;;;;;2.38;1.83;;;18.70;91.20;;;;;;6222009;23;20000;-75
2023/09/18 03:39:09;;;;;;;2.75;2.00;;;18.70;91.20;;;;;;6221179;23;20008;-75
2023/09/18 03:41:35;;;;;;;2.42;1.95;;;18.80;91.20;;;;;;6221452;23;20003;-77
2023/09/18 03:44:04;;;;;;;1.88;1.50;;;18.80;91.20;;;;;;6201558;23;20000;-75
2023/09/18 03:46:30;;;;;;;1.77;1.45;;;18.70;91.20;;;;;;6222746;23;19997;-76
2023/09/18 03:48:57;;;;;;;3.15;1.90;;;18.80;91.20;;;;;;6224534;23;20001;-75
2023/09/18 03:51:23;;;;;;;2.78;1.83;;;18.80;91.20;;;;;;6182177;23;20061;-75
2023/09/18 03:53:48;;;;;;;3.38;1.75;;;18.80;91.20;;;;;;6198544;23;20005;-75
2023/09/18 03:56:15;;;;;;;2.30;1.80;;;18.80;91.20;;;;;;6224015;23;20008;-76
2023/09/18 03:58:41;;;;;;;2.50;1.73;;;18.80;91.20;;;;;;6224681;23;20581;-75
2023/09/18 04:01:07;;;;;;;2.58;1.80;;;18.70;91.20;;;;;;6227268;23;20005;-75
2023/09/18 04:03:33;;;;;;;3.08;1.90;;;18.80;91.20;;;;;;6215332;23;19997;-75
2023/09/18 04:05:59;;;;;;;3.25;2.08;;;18.80;91.20;;;;;;6225734;23;20011;-75
2023/09/18 04:08:24;;;;;;;2.88;1.70;;;18.80;91.20;;;;;;6226714;23;19996;-75
2023/09/18 04:10:50;;;;;;;2.40;1.80;;;18.80;91.20;;;;;;6206131;23;20083;-75
2023/09/18 04:13:16;;;;;;;2.33;1.60;;;18.90;91.30;;;;;;6225067;23;20000;-76
2023/09/18 04:15:42;;;;;;;2.15;1.67;;;18.80;91.30;;;;;;6223216;23;20441;-75
2023/09/18 04:18:07;;;;;;;2.08;1.70;;;18.80;91.30;;;;;;6213922;23;20001;-75
2023/09/18 04:20:35;;;;;;;2.55;2.00;;;18.70;91.20;;;;;;6198604;23;20009;-75
2023/09/18 04:23:22;;;;;;;2.33;1.85;;;18.80;91.30;;;;;;6201047;23;20014;-75
2023/09/18 04:25:48;;;;;;;3.35;2.30;;;18.80;91.30;;;;;;6194156;23;20031;-75
2023/09/18 04:28:17;;;;;;;3.00;2.13;;;18.80;91.30;;;;;;6222618;23;19996;-76
2023/09/18 04:30:43;;;;;;;2.65;1.75;;;18.80;91.30;;;;;;6199805;23;20001;-75
2023/09/18 04:33:09;;;;;;;2.38;1.80;;;18.90;91.30;;;;;;6202871;23;20000;-76
2023/09/18 04:35:35;;;;;;;1.90;1.70;;;18.90;91.30;;;;;;6192661;23;20040;-74
2023/09/18 04:38:00;;;;;;;2.42;1.70;;;18.90;91.30;;;;;;6172690;22;20013;-76
2023/09/18 04:40:31;;;;;;;2.13;1.70;;;18.80;91.30;;;;;;6167815;23;20021;-75
2023/09/18 04:42:58;;;;;;;2.30;1.52;;;18.80;91.30;;;;;;6191273;23;20452;-76
2023/09/18 04:45:25;;;;;;;2.08;1.45;;;18.90;91.30;;;;;;6103141;23;20085;-76
2023/09/18 04:47:52;;;;;;;3.13;1.85;;;18.90;91.30;;;;;;6089634;23;20018;-77
2023/09/18 04:50:17;;;;;;;2.40;1.65;;;18.90;91.30;;;;;;6098566;23;20022;-77
2023/09/18 04:52:43;;;;;;;2.95;1.77;;;19.00;91.30;;;;;;6059755;23;20099;-78
2023/09/18 04:55:10;;;;;;;3.25;2.10;;;19.10;91.30;;;;;;6117736;23;20026;-78
2023/09/18 04:57:36;;;;;;;3.17;1.83;;;19.20;91.20;;;;;;6057268;23;19987;-77
2023/09/18 05:00:02;;;;;;;3.85;1.92;;;19.20;91.10;;;;;;6062957;23;20009;-77
2023/09/18 05:02:30;;;;;;;3.15;2.10;;;19.30;91.00;;;;;;6090755;23;20010;-77
2023/09/18 05:04:56;;;;;;;3.63;2.25;;;19.40;90.90;;;;;;6114676;23;20071;-79
2023/09/18 05:07:22;;;;;;;4.32;2.03;;;19.40;90.90;;;;;;6118200;23;20017;-77
2023/09/18 05:09:48;;;;;;;5.28;2.10;;;19.40;90.90;;;;;;6100873;23;20006;-77
2023/09/18 05:12:15;;;;;;;3.15;1.95;;;19.50;90.80;;;;;;6127149;23;20013;-76
2023/09/18 05:14:42;;;;;;;2.53;1.77;;;19.50;90.80;;;;;;6132586;23;20012;-76
2023/09/18 05:17:14;;;;;;;2.80;1.90;;;19.30;90.80;;;;;;6209641;22;20869;-76
2023/09/18 05:19:40;;;;;;;4.05;1.88;;;19.50;90.80;;;;;;6218394;22;20008;-75
2023/09/18 05:22:07;;;;;;;2.75;1.80;;;19.50;90.80;;;;;;6218579;22;20004;-75
2023/09/18 05:24:33;;;;;;;2.22;1.67;;;19.50;90.80;;;;;;6244819;22;20023;-75
2023/09/18 05:26:59;;;;;;;2.60;1.70;;;19.50;90.90;;;;;;6244984;22;19996;-75
2023/09/18 05:29:25;;;;;;;1.50;1.35;;;19.50;90.90;;;;;;6218630;22;20008;-75
2023/09/18 05:31:50;;;;;;;2.85;1.60;;;19.50;90.90;;;;;;6217849;22;20008;-75
2023/09/18 05:34:16;;;;;;;1.45;1.35;;;19.50;90.90;;;;;;6217755;23;20512;-75
2023/09/18 05:36:42;;;;;;;2.58;1.60;;;19.50;90.90;;;;;;6217816;22;20329;-75
2023/09/18 05:39:11;;;;;;;2.05;1.52;;;19.50;91.00;;;;;;6217892;22;20012;-75
2023/09/18 05:41:37;;;;;;;1.92;1.52;;;19.50;91.00;;;;;;6193465;23;20008;-75
2023/09/18 05:44:04;;;;;;;2.10;1.60;;;19.50;91.00;;;;;;6217786;22;20040;-74
2023/09/18 05:46:30;;;;;;;1.45;1.35;;;19.50;91.10;;;;;;6217245;22;20028;-75
2023/09/18 05:48:58;;;;;;;1.40;1.30;;;19.50;91.10;;;;;;6218059;22;20506;-77
2023/09/18 05:51:23;;;;;;;2.10;1.40;;;19.50;91.10;;;;;;6247037;22;20004;-75
2023/09/18 05:53:49;;;;;;;2.42;1.50;;;19.50;91.20;;;;;;6216428;23;20004;-75
2023/09/18 05:56:17;;;;;;;2.15;1.38;;;19.50;91.20;;;;;;6202723;23;20007;-75
2023/09/18 05:58:43;;;;;;;1.30;1.20;;;19.50;91.20;;;;;;6176082;23;20009;-75
2023/09/18 06:01:09;;;;;;;1.95;1.50;;;19.40;91.20;;;;;;6211014;23;20056;-75
2023/09/18 06:03:35;;;;;;;2.95;1.83;;;19.50;91.20;;;;;;6172932;23;19996;-75
2023/09/18 06:06:05;;;;;;;3.85;1.73;;;19.50;91.20;;;;;;6211118;23;20003;-75
2023/09/18 06:08:32;;;;;;;3.28;1.98;;;19.50;91.30;;;;;;6223679;23;20001;-75
2023/09/18 06:10:58;;;;;;;2.78;1.73;;;19.50;91.30;;;;;;6158534;23;20057;-75
2023/09/18 06:13:25;;;;;;;2.33;1.80;;;19.50;91.30;;;;;;6114619;23;20009;-75
2023/09/18 06:15:54;;;;;;;1.80;1.60;;;19.60;91.30;;;;;;6163805;23;20033;-75
2023/09/18 06:18:20;;;;;;;2.15;1.80;;;19.50;91.20;;;;;;6141637;23;20036;-78
2023/09/18 06:20:56;;;;;;;2.08;1.67;;;19.60;91.20;;;;;;6170172;23;20509;-76
2023/09/18 06:23:24;;;;;;;2.20;1.77;;;19.60;91.50;;;;;;6128472;23;19994;-78
2023/09/18 06:26:08;;;;;;;2.53;1.70;;;19.50;91.20;;;;;;6146566;23;20087;-75
2023/09/18 06:29:39;;;;;;;1.83;1.48;;;19.60;91.20;;;;;;6132384;23;20013;-80
2023/09/18 06:32:21;;;;;;;1.77;1.50;;;19.60;91.20;;;;;;6066675;23;20119;-79
2023/09/18 06:34:53;;;;;;;2.88;1.60;;;19.70;91.10;;;;;;6062563;23;20097;-78
2023/09/18 06:37:32;;;;;;;2.33;1.60;;;19.70;91.10;;;;;;6054234;23;20046;-78
2023/09/18 06:40:03;;;;;;;2.00;1.48;;;19.60;91.10;;;;;;6052920;23;20109;-77
2023/09/18 06:42:37;;;;;;;1.60;1.35;;;19.70;91.10;;;;;;6041592;23;20042;-78
2023/09/18 06:45:13;;;;;;;3.40;1.60;;;19.80;91.10;;;;;;6105512;23;20118;-78
2023/09/18 06:47:42;;;;;;;5.20;1.40;;;19.70;91.10;;;;;;6058522;23;20033;-78
2023/09/18 06:50:09;;;;;;;2.22;1.52;;;19.80;91.10;;;;;;6011233;23;19996;-77
2023/09/18 06:52:43;;;;;;;2.25;1.50;;;19.80;91.10;;;;;;6008450;23;20067;-76
2023/09/18 06:55:09;;;;;;;2.38;1.60;;;19.80;91.10;;;;;;5954850;24;20025;-76
2023/09/18 06:57:38;;;;;;;3.50;1.70;;;19.80;91.10;;;;;;5963012;24;20023;-77
2023/09/18 07:00:43;;;;;;;2.00;1.40;;;19.80;91.10;;;;;;5956992;24;20047;-79
2023/09/18 07:03:09;;;;;;;3.08;1.50;;;19.80;91.00;;;;;;5874549;24;20018;-76
2023/09/18 07:05:35;;;;;;;2.42;1.48;;;19.80;91.00;;;;;;5873547;24;20431;-76
2023/09/18 07:08:00;;;;;;;2.45;1.50;;;19.90;91.00;;;;;;5915714;24;20017;-77
2023/09/18 07:10:26;;;;;;;2.33;1.50;;;19.90;90.90;;;;;;5928240;24;20438;-75
2023/09/18 07:12:54;;;;;;;2.08;1.50;;;20.00;90.90;;;;;;5972535;23;20015;-78
2023/09/18 07:19:05;;;;;;;1.67;1.17;;;20.10;90.80;;;;;;5989997;23;20083;-76
2023/09/18 07:21:43;;;;;;;1.65;1.20;;;20.10;90.70;;;;;;6029408;23;20042;-77
2023/09/18 07:24:16;;;;;;;2.50;1.40;;;20.00;90.70;;;;;;5930409;23;20020;-77
2023/09/18 07:26:46;;;;;;;2.22;1.30;;;20.10;90.70;;;;;;5970360;23;20016;-77
2023/09/18 07:29:14;;;;;;;1.33;1.20;;;20.20;90.60;;;;;;6013115;23;20026;-76
2023/09/18 07:31:41;;;;;;;1.20;1.10;;;20.20;90.60;;;;;;6012238;23;20251;-77
2023/09/18 07:34:07;;;;;;;2.00;1.30;;;20.10;90.60;;;;;;5989433;23;20059;-76
2023/09/18 07:36:33;;;;;;;1.40;1.02;;;20.20;90.60;;;;;;6012235;23;20019;-77
2023/09/18 07:38:59;;;;;;;1.17;1.02;;;20.10;90.50;;;;;;6036402;23;20395;-76
2023/09/18 07:41:25;;;;;;;2.40;1.15;;;20.10;90.50;;;;;;6127517;23;20021;-77
2023/09/18 07:43:51;;;;;;;1.42;1.10;;;20.20;90.50;;;;;;6127688;23;20018;-76
2023/09/18 07:46:16;;;;;;;2.28;1.17;;;20.20;90.50;;;;;;6129114;23;20029;-77
2023/09/18 07:48:42;;;;;;;1.17;1.00;;;20.10;90.50;;;;;;6184298;23;20189;-77
2023/09/18 07:51:12;;;;;;;1.10;1.00;;;20.10;90.50;;;;;;6187484;23;20095;-77
2023/09/18 07:53:37;;;;;;;0.85;0.85;;;20.10;90.50;;;;;;6165625;23;20099;-77
2023/09/18 07:56:04;;;;;;;1.00;0.80;;;20.00;90.40;;;;;;6215169;23;20390;-77
2023/09/18 07:58:33;;;;;;;1.00;0.90;;;20.20;90.50;;;;;;6214614;23;20008;-77
2023/09/18 08:00:59;;;;;;;1.00;0.82;;;20.20;90.50;;;;;;6203375;23;20087;-77
2023/09/18 08:03:26;;;;;;;1.10;1.00;;;20.20;90.50;;;;;;6214656;23;20036;-77
2023/09/18 08:05:53;;;;;;;1.02;0.93;;;20.10;90.40;;;;;;6216974;23;20032;-77
2023/09/18 08:08:20;;;;;;;2.15;1.10;;;20.10;90.40;;;;;;6201551;23;20016;-77
2023/09/18 10:26:55;;;;;;;1.50;1.00;;;21.30;86.90;;;;;;5920421;24;20032;-79
2023/09/18 12:16:27;;;;;;;;;;;22.00;84.80;;;;;;6237760;22;21229;-77
2023/09/18 12:27:00;;;;;;;2.42;1.13;;;22.20;84.20;;;;;;6195000;23;20448;-81
2023/09/18 12:34:56;;;;;;;1.35;1.17;;;22.30;83.90;;;;;;6142161;23;20469;-82
2023/09/18 13:14:07;;;;;;;1.73;1.40;;;22.90;81.70;;;;;;5805583;24;20026;-78
2023/09/18 13:38:58;;;;;;;1.48;1.30;;;22.90;80.90;;;;;;5750744;24;20457;-78
2023/09/18 13:50:07;;;;;;;2.67;1.27;;;23.00;80.60;;;;;;5623327;25;20057;-79
2023/09/18 14:04:10;;;;;;;1.27;1.10;;;23.20;80.10;;;;;;5665688;25;20037;-81
2023/09/18 14:10:29;;;;;;;1.85;1.23;;;23.10;79.60;;;;;;5738935;25;20353;-80
2023/09/18 14:13:24;;;;;;;2.05;1.38;;;23.00;79.60;;;;;;5725005;24;20035;-80
2023/09/18 14:22:54;;;;;;;2.78;1.30;;;23.00;79.80;;;;;;5758959;24;20061;-82
2023/09/18 14:52:14;;;;;;;1.77;1.13;;;22.90;78.90;;;;;;5866285;24;20106;-79
2023/09/18 14:55:40;;;;;;;1.10;0.95;;;22.80;78.60;;;;;;5786148;24;20030;-75
2023/09/18 15:24:32;;;;;;;1.50;1.02;;;22.70;78.00;;;;;;5887440;24;20040;-79
2023/09/18 15:26:58;;;;;;;1.52;1.10;;;22.70;77.90;;;;;;5845155;24;20105;-78
2023/09/18 15:29:48;;;;;;;1.42;0.90;;;22.70;78.50;;;;;;5795643;24;20042;-78
2023/09/18 15:32:26;;;;;;;1.00;0.90;;;22.80;77.80;;;;;;5850734;24;20038;-80
2023/09/18 17:28:55;;;;;;;0.75;0.50;;;17.90;86.40;;;;;;6093539;23;20030;-83
2023/09/18 17:31:26;;;;;;;0.60;0.60;;;17.90;86.40;;;;;;6039236;23;20027;-83
2023/09/18 17:37:25;;;;;;;0.60;0.60;;;17.90;86.50;;;;;;5950046;24;20350;-83
2023/09/18 17:39:51;;;;;;;1.08;0.70;;;17.90;86.50;;;;;;5901701;24;20029;-82
2023/09/18 17:42:20;;;;;;;1.13;0.90;;;17.80;86.50;;;;;;5926207;24;20053;-82
2023/09/18 22:32:22;;;;;;;2.30;0.82;;;16.40;86.80;;;;;;6218233;23;20028;-82
2023/09/18 22:34:54;;;;;;;3.47;0.77;;;16.40;86.80;;;;;;6174042;23;20009;-81
2023/09/18 22:41:03;;;;;;;;;;;16.30;86.90;;;;;;6214059;23;20035;-80
2023/09/18 22:44:06;;;;;;;1.40;0.73;;;16.40;86.90;;;;;;6181439;23;19908;-79
2023/09/18 22:47:06;;;;;;;1.65;0.75;;;16.30;86.80;;;;;;6151726;23;20064;-80
2023/09/18 22:50:16;;;;;;;2.03;0.63;;;16.30;87.40;;;;;;6153118;23;20017;-81
2023/09/18 22:56:00;;;;;;;1.65;0.70;;;16.30;87.40;;;;;;6032343;23;20015;-79
2023/09/18 22:58:29;;;;;;;1.30;0.75;;;16.30;86.70;;;;;;6037289;23;20006;-79
2023/09/18 23:00:59;;;;;;;1.83;0.70;;;16.30;86.70;;;;;;6036307;23;20027;-78
2023/09/18 23:03:29;;;;;;;2.47;0.60;;;16.30;86.70;;;;;;6037157;23;20015;-79
2023/09/18 23:06:19;;;;;;;1.95;0.80;;;16.30;86.80;;;;;;6043035;23;20543;-79
2023/09/18 23:08:49;;;;;;;1.30;0.70;;;16.30;86.90;;;;;;5869776;24;20459;-77
2023/09/18 23:11:40;;;;;;;2.08;0.80;;;16.20;87.00;;;;;;5846766;24;20097;-80
2023/09/18 23:14:29;;;;;;;2.58;0.68;;;16.20;87.20;;;;;;5850844;24;20025;-81
2023/09/18 23:17:16;;;;;;;2.03;0.52;;;16.00;87.30;;;;;;5884529;24;20054;-81
2023/09/18 23:19:46;;;;;;;1.13;0.65;;;16.00;87.60;;;;;;5869693;24;20384;-82
2023/09/18 23:23:26;;;;;;;0.47;0.47;;;16.00;87.70;;;;;;5853042;24;20025;-82
2023/09/18 23:29:08;;;;;;;0.80;0.40;;;15.80;87.90;;;;;;5848151;24;20018;-81
2023/09/18 23:31:42;;;;;;;1.98;0.50;;;15.70;88.10;;;;;;5835248;24;20013;-82
2023/09/18 23:34:14;;;;;;;0.93;0.38;;;15.60;88.20;;;;;;5892528;24;20030;-84
2023/09/18 23:36:42;;;;;;;0.68;0.40;;;15.60;88.30;;;;;;5877245;24;20085;-79
2023/09/18 23:39:11;;;;;;;1.00;0.30;;;15.60;88.40;;;;;;5933189;23;20015;-81
2023/09/18 23:44:32;;;;;;;;;;;15.60;88.30;;;;;;5951027;24;20017;-81
2023/09/18 23:46:58;;;;;;;0.20;0.20;;;15.40;88.20;;;;;;5995146;23;19993;-80
2023/09/18 23:52:10;;;;;;;0.40;0.40;;;15.40;88.20;;;;;;5939892;24;20009;-79
2023/09/18 23:58:18;;;;;;;0.60;0.40;;;15.50;88.30;;;;;;5921441;24;20040;-81
